Time;durP1;ratioP1;P1;durP2;ratioP2;P2;SDS_P1;SDS_P2;PMS_P1;PMS_P2;Temp;Humidity;BMP_temperature;BMP_pressure;BME280_temperature;BME280_humidity;BME280_pressure;Samples;Min_cycle;Max_cycle;Signal;HPM_P1;HPM_P2
2023/04/27 00:00:26;;;;;;;3.35;1.33;;;3.00;99.90;;;;;;5054671;28;20037;-63
2023/04/27 00:02:52;;;;;;;6.20;1.77;;;3.00;99.90;;;;;;5054808;28;20064;-63
2023/04/27 00:05:18;;;;;;;5.22;1.70;;;3.00;99.90;;;;;;5054536;28;20092;-62
2023/04/27 00:07:43;;;;;;;4.60;2.20;;;3.50;99.90;;;;;;5054702;28;20108;-63
2023/04/27 00:10:09;;;;;;;3.08;1.17;;;3.90;99.90;;;;;;5054350;28;20041;-63
2023/04/27 00:12:35;;;;;;;3.15;1.77;;;3.00;99.90;;;;;;5053314;28;20033;-63
2023/04/27 00:15:00;;;;;;;2.22;1.30;;;2.90;1.00;;;;;;5054135;28;20048;-63
2023/04/27 00:17:26;;;;;;;1.75;1.10;;;2.90;99.90;;;;;;5054427;28;20044;-64
2023/04/27 00:19:52;;;;;;;2.78;1.60;;;2.90;99.90;;;;;;5054141;28;20037;-63
2023/04/27 00:22:18;;;;;;;2.72;1.30;;;2.90;99.90;;;;;;5054456;28;20118;-63
2023/04/27 00:24:43;;;;;;;2.00;1.30;;;2.90;1.00;;;;;;5054234;28;20037;-63
2023/04/27 00:27:12;;;;;;;2.42;1.48;;;2.90;99.90;;;;;;5054233;28;20041;-63
2023/04/27 00:29:43;;;;;;;1.92;1.27;;;3.00;1.00;;;;;;5053864;28;20053;-63
2023/04/27 00:32:09;;;;;;;;;;;3.00;1.00;;;;;;5054601;28;20495;-63
2023/04/27 00:34:35;;;;;;;5.35;1.40;;;3.00;1.00;;;;;;5054222;28;19920;-63
2023/04/27 00:37:01;;;;;;;4.45;1.25;;;2.90;1.00;;;;;;5035964;28;20455;-62
2023/04/27 00:39:26;;;;;;;3.88;1.70;;;3.00;1.00;;;;;;5053956;28;20036;-62
2023/04/27 00:41:52;;;;;;;2.47;1.38;;;3.00;1.00;;;;;;5053563;28;20044;-63
2023/04/27 00:44:25;;;;;;;2.55;1.35;;;2.90;1.00;;;;;;5054032;28;20043;-63
2023/04/27 00:46:52;;;;;;;3.03;1.30;;;3.10;1.00;;;;;;5053821;28;20508;-63
2023/04/27 00:49:22;;;;;;;4.03;1.40;;;3.10;1.00;;;;;;5053946;28;20400;-63
2023/04/27 00:51:47;;;;;;;5.65;1.40;;;3.20;99.90;;;;;;5035696;28;20139;-63
2023/04/27 00:54:19;;;;;;;2.80;1.52;;;3.20;99.90;;;;;;5053907;28;20044;-63
2023/04/27 00:56:48;;;;;;;1.77;1.40;;;3.30;99.90;;;;;;5035746;28;20045;-63
2023/04/27 00:59:14;;;;;;;6.43;2.20;;;3.30;99.90;;;;;;5053582;28;20400;-63
2023/04/27 01:01:40;;;;;;;2.88;1.42;;;3.40;99.90;;;;;;5053338;28;20045;-63
2023/04/27 01:04:06;;;;;;;2.65;1.33;;;3.40;99.90;;;;;;5053658;28;20041;-63
2023/04/27 01:06:31;;;;;;;3.72;2.10;;;3.50;99.90;;;;;;5049709;28;20106;-63
2023/04/27 01:08:57;;;;;;;5.93;1.67;;;3.50;99.90;;;;;;5053487;28;20052;-63
2023/04/27 01:11:23;;;;;;;2.67;1.20;;;3.40;99.90;;;;;;5053474;28;20037;-63
2023/04/27 01:13:48;;;;;;;6.35;1.77;;;3.50;99.90;;;;;;5053474;28;20472;-63
2023/04/27 01:16:17;;;;;;;6.05;1.58;;;3.40;99.90;;;;;;5053494;28;20045;-63
2023/04/27 01:18:43;;;;;;;4.60;1.50;;;3.50;1.00;;;;;;5052077;28;20128;-62
2023/04/27 01:21:09;;;;;;;7.22;1.50;;;3.50;1.00;;;;;;5053363;28;20044;-62
2023/04/27 01:23:35;;;;;;;2.72;1.38;;;3.50;99.90;;;;;;5053294;28;20397;-62
2023/04/27 01:26:00;;;;;;;5.22;2.15;;;3.50;99.90;;;;;;5053120;28;20029;-63
2023/04/27 01:28:26;;;;;;;4.00;1.50;;;3.50;99.90;;;;;;5051695;28;20037;-63
2023/04/27 01:30:52;;;;;;;9.02;2.17;;;3.60;99.90;;;;;;5053117;28;20099;-63
2023/04/27 01:33:17;;;;;;;3.70;1.80;;;3.60;99.90;;;;;;5051529;28;20481;-62
2023/04/27 01:35:43;;;;;;;3.50;1.90;;;3.60;99.90;;;;;;5053058;28;20494;-62
2023/04/27 01:38:08;;;;;;;3.58;2.08;;;3.60;99.90;;;;;;5052808;28;20045;-62
2023/04/27 01:40:34;;;;;;;8.13;2.13;;;3.50;99.90;;;;;;5052960;28;20037;-63
2023/04/27 01:43:00;;;;;;;2.50;1.70;;;3.50;99.90;;;;;;5051722;28;20044;-63
2023/04/27 01:45:25;;;;;;;2.75;1.67;;;3.40;99.90;;;;;;5052603;28;20037;-65
2023/04/27 01:47:51;;;;;;;4.18;1.50;;;3.40;99.90;;;;;;5052694;28;20070;-63
2023/04/27 01:50:18;;;;;;;3.15;2.15;;;3.40;99.90;;;;;;5052653;28;20040;-63
2023/04/27 01:52:43;;;;;;;2.97;1.85;;;3.70;99.90;;;;;;5052909;28;20033;-62
2023/04/27 01:55:09;;;;;;;3.40;1.67;;;3.30;99.90;;;;;;5052574;28;20111;-62
2023/04/27 01:57:35;;;;;;;3.42;1.67;;;3.20;99.90;;;;;;5051414;28;20420;-63
2023/04/27 02:00:01;;;;;;;4.30;2.53;;;3.20;1.00;;;;;;5051338;28;20120;-63
2023/04/27 02:02:26;;;;;;;4.05;1.88;;;3.20;1.00;;;;;;5052487;28;20443;-63
2023/04/27 02:04:52;;;;;;;7.90;2.35;;;3.10;1.00;;;;;;5055045;28;20085;-62
2023/04/27 02:07:17;;;;;;;4.10;1.60;;;3.10;1.00;;;;;;5039003;28;20049;-62
2023/04/27 02:09:43;;;;;;;3.85;1.75;;;3.10;1.00;;;;;;5056628;28;20083;-62
2023/04/27 02:12:09;;;;;;;4.38;1.63;;;3.10;1.00;;;;;;5056755;28;20048;-62
2023/04/27 02:14:34;;;;;;;4.78;2.20;;;3.00;1.00;;;;;;5038548;28;20041;-62
2023/04/27 02:17:00;;;;;;;4.03;1.90;;;3.00;1.00;;;;;;5056718;28;20508;-63
2023/04/27 02:19:26;;;;;;;6.07;1.88;;;3.00;1.00;;;;;;5056668;28;20485;-63
2023/04/27 02:21:52;;;;;;;2.83;2.05;;;3.00;1.00;;;;;;5056406;28;20048;-62
2023/04/27 02:24:17;;;;;;;4.90;1.98;;;2.90;1.00;;;;;;5056318;28;20033;-63
2023/04/27 02:26:43;;;;;;;3.88;1.85;;;2.90;1.00;;;;;;5056540;28;20396;-62
2023/04/27 02:29:09;;;;;;;5.28;2.03;;;2.90;1.00;;;;;;5056537;28;20473;-62
2023/04/27 02:31:34;;;;;;;2.83;1.67;;;2.80;1.00;;;;;;5056560;28;20048;-62
2023/04/27 02:34:00;;;;;;;6.00;2.15;;;2.80;1.00;;;;;;5056431;28;20086;-63
2023/04/27 02:36:26;;;;;;;3.88;1.70;;;2.80;1.00;;;;;;5038520;28;20055;-62
2023/04/27 02:38:52;;;;;;;3.75;1.85;;;2.70;1.00;;;;;;5056270;28;20045;-62
2023/04/27 02:41:17;;;;;;;5.60;2.58;;;2.70;1.80;;;;;;5056018;28;20051;-62
2023/04/27 02:43:43;;;;;;;3.00;2.05;;;2.60;1.00;;;;;;5056031;28;20476;-63
2023/04/27 02:46:09;;;;;;;4.78;2.22;;;2.60;1.00;;;;;;5055891;28;20064;-62
2023/04/27 02:48:34;;;;;;;3.10;1.80;;;2.60;10.20;;;;;;5056190;28;20032;-62
2023/04/27 02:51:03;;;;;;;3.83;1.77;;;2.60;14.00;;;;;;5055858;28;20044;-62
2023/04/27 02:53:29;;;;;;;4.55;2.10;;;2.60;12.20;;;;;;5038191;28;20128;-62
2023/04/27 02:55:54;;;;;;;3.95;2.45;;;2.60;8.20;;;;;;5055759;28;20080;-63
2023/04/27 02:58:20;;;;;;;3.88;2.28;;;2.50;11.10;;;;;;5056032;28;20468;-62
2023/04/27 03:00:45;;;;;;;3.20;1.90;;;2.50;38.80;;;;;;5055893;28;20488;-63
2023/04/27 03:03:11;;;;;;;8.32;2.40;;;2.50;45.80;;;;;;5055890;28;20037;-62
2023/04/27 03:05:37;;;;;;;4.55;1.85;;;2.40;28.50;;;;;;5044463;28;20053;-63
2023/04/27 03:08:03;;;;;;;2.50;1.58;;;2.40;39.60;;;;;;5055755;28;20041;-62
2023/04/27 03:10:29;;;;;;;3.05;1.83;;;2.30;54.10;;;;;;5055748;28;20037;-63
2023/04/27 03:12:54;;;;;;;3.42;2.05;;;2.40;56.40;;;;;;5055695;28;20571;-62
2023/04/27 03:15:20;;;;;;;2.58;1.48;;;2.50;50.00;;;;;;5055223;28;20086;-62
2023/04/27 03:17:45;;;;;;;2.97;1.52;;;2.20;41.20;;;;;;5055649;28;20041;-62
2023/04/27 03:20:11;;;;;;;3.88;1.88;;;2.50;50.90;;;;;;5054051;28;20408;-64
2023/04/27 03:22:37;;;;;;;4.05;1.98;;;2.20;52.20;;;;;;5055435;28;20488;-62
2023/04/27 03:25:04;;;;;;;2.72;1.58;;;2.20;61.50;;;;;;5055578;28;20060;-62
2023/04/27 03:27:30;;;;;;;3.47;1.85;;;2.20;48.80;;;;;;5055473;28;20473;-62
2023/04/27 03:29:55;;;;;;;2.53;1.48;;;2.10;56.50;;;;;;5055462;28;20047;-62
2023/04/27 03:32:21;;;;;;;3.80;1.65;;;2.10;71.50;;;;;;5055102;28;20037;-62
2023/04/27 03:34:47;;;;;;;3.10;1.50;;;2.00;72.80;;;;;;5055299;28;20033;-62
2023/04/27 03:37:12;;;;;;;5.50;1.70;;;2.00;75.50;;;;;;5055216;28;20041;-62
2023/04/27 03:39:38;;;;;;;5.10;2.00;;;2.00;80.20;;;;;;5055074;28;20040;-62
2023/04/27 03:42:04;;;;;;;3.78;1.75;;;2.00;80.00;;;;;;5055160;28;20554;-62
2023/04/27 03:44:32;;;;;;;3.35;2.08;;;1.90;91.10;;;;;;5055121;28;20135;-63
2023/04/27 03:46:57;;;;;;;3.72;2.25;;;1.90;91.50;;;;;;5054855;28;20033;-62
2023/04/27 03:49:23;;;;;;;3.22;2.33;;;1.90;91.80;;;;;;5054826;28;20086;-62
2023/04/27 03:51:49;;;;;;;2.88;1.90;;;1.80;90.70;;;;;;5054927;28;20145;-62
2023/04/27 03:54:14;;;;;;;4.05;2.13;;;1.80;91.40;;;;;;5055036;28;20142;-62
2023/04/27 03:56:40;;;;;;;3.00;1.88;;;1.80;93.40;;;;;;5054976;28;20045;-62
2023/04/27 03:59:05;;;;;;;5.50;1.98;;;1.70;95.50;;;;;;5053317;28;20059;-62
2023/04/27 04:01:32;;;;;;;4.18;2.15;;;1.70;95.90;;;;;;5054542;28;20076;-62
2023/04/27 04:03:58;;;;;;;3.85;2.33;;;1.70;93.10;;;;;;5054541;28;20110;-63
2023/04/27 04:06:24;;;;;;;5.07;2.13;;;1.70;89.10;;;;;;5054419;28;20044;-63
2023/04/27 04:08:49;;;;;;;5.38;2.08;;;1.70;88.20;;;;;;5054695;28;20029;-63
2023/04/27 04:11:15;;;;;;;4.10;2.20;;;1.70;87.10;;;;;;5054367;28;20036;-62
2023/04/27 04:13:41;;;;;;;3.08;2.13;;;1.70;90.40;;;;;;5054585;28;20029;-62
2023/04/27 04:16:08;;;;;;;7.10;2.40;;;1.70;92.60;;;;;;5054580;28;20041;-62
2023/04/27 04:18:35;;;;;;;3.35;2.17;;;1.70;90.60;;;;;;5054402;28;20583;-63
2023/04/27 04:21:00;;;;;;;10.65;2.20;;;1.70;88.50;;;;;;5054158;28;20083;-62
2023/04/27 04:23:26;;;;;;;4.80;2.25;;;1.60;92.70;;;;;;5054477;28;20064;-62
2023/04/27 04:25:53;;;;;;;3.67;2.15;;;1.70;93.40;;;;;;5054230;28;20083;-63
2023/04/27 04:28:18;;;;;;;2.92;2.00;;;1.70;91.60;;;;;;5035895;28;20511;-62
2023/04/27 04:30:44;;;;;;;4.10;2.28;;;1.70;86.10;;;;;;5054133;28;20120;-62
2023/04/27 04:33:10;;;;;;;5.97;2.78;;;1.70;87.40;;;;;;5053931;28;20071;-62
2023/04/27 04:35:40;;;;;;;4.20;1.88;;;1.70;88.00;;;;;;5054166;28;20081;-62
2023/04/27 04:38:06;;;;;;;2.90;2.17;;;1.60;85.90;;;;;;5054069;28;20060;-62
2023/04/27 04:40:31;;;;;;;4.18;2.00;;;1.70;81.10;;;;;;5053936;28;20037;-62
2023/04/27 04:42:57;;;;;;;5.47;2.00;;;1.70;77.90;;;;;;5053938;28;20040;-63
2023/04/27 04:45:23;;;;;;;4.75;2.97;;;1.70;75.90;;;;;;5053633;28;20442;-62
2023/04/27 04:47:49;;;;;;;4.22;2.42;;;1.70;79.20;;;;;;5053870;28;20132;-62
2023/04/27 04:50:15;;;;;;;2.20;1.60;;;1.70;76.50;;;;;;5035732;28;20467;-64
2023/04/27 04:52:40;;;;;;;5.20;2.33;;;2.10;86.80;;;;;;5053849;28;20044;-62
2023/04/27 04:55:06;;;;;;;4.28;2.38;;;1.80;90.10;;;;;;5053804;28;20496;-62
2023/04/27 04:57:32;;;;;;;3.40;2.03;;;1.80;90.20;;;;;;5053751;28;20175;-62
2023/04/27 04:59:58;;;;;;;4.70;2.30;;;1.90;90.50;;;;;;5053550;28;20045;-64
2023/04/27 05:02:23;;;;;;;6.30;2.40;;;1.90;90.20;;;;;;5053589;28;20538;-63
2023/04/27 05:04:50;;;;;;;3.70;2.13;;;2.00;90.60;;;;;;5053441;28;20056;-63
2023/04/27 05:07:16;;;;;;;5.53;2.15;;;2.10;92.60;;;;;;5053285;28;20412;-64
2023/04/27 05:09:42;;;;;;;5.75;2.85;;;2.30;91.90;;;;;;5053297;28;20041;-63
2023/04/27 05:12:08;;;;;;;5.45;2.67;;;2.30;92.90;;;;;;5053573;28;20044;-63
2023/04/27 05:14:34;;;;;;;5.38;2.88;;;2.50;90.80;;;;;;5053433;28;20121;-63
2023/04/27 05:16:59;;;;;;;4.18;2.47;;;2.60;91.50;;;;;;5035527;28;20064;-63
2023/04/27 05:19:28;;;;;;;5.10;2.42;;;2.70;91.10;;;;;;5053343;28;20032;-63
2023/04/27 05:21:54;;;;;;;5.78;2.45;;;2.80;85.70;;;;;;5053408;28;20032;-63
2023/04/27 05:24:19;;;;;;;3.50;2.20;;;2.80;79.00;;;;;;5053249;28;20388;-63
2023/04/27 05:26:45;;;;;;;4.30;2.60;;;2.90;82.60;;;;;;5052917;28;20424;-63
2023/04/27 05:29:11;;;;;;;4.80;2.50;;;3.00;78.70;;;;;;5053162;28;20037;-63
2023/04/27 05:31:36;;;;;;;5.45;2.42;;;3.00;74.30;;;;;;5052979;28;20435;-63
2023/04/27 05:34:02;;;;;;;3.95;1.75;;;3.20;70.60;;;;;;5053271;28;20127;-63
2023/04/27 05:36:27;;;;;;;4.60;2.15;;;3.30;79.00;;;;;;5053138;28;20045;-64
2023/04/27 05:38:54;;;;;;;4.28;2.60;;;3.40;47.10;;;;;;5033927;28;20509;-64
2023/04/27 05:41:20;;;;;;;3.70;2.05;;;3.50;38.70;;;;;;5053116;28;20037;-63
2023/04/27 05:43:45;;;;;;;5.03;1.92;;;3.60;37.30;;;;;;5052964;28;20043;-63
2023/04/27 05:46:15;;;;;;;2.58;1.73;;;3.80;33.50;;;;;;5053053;28;20041;-64
2023/04/27 05:48:40;;;;;;;2.80;2.00;;;3.90;27.90;;;;;;5052999;28;20519;-64
2023/04/27 05:51:06;;;;;;;3.08;1.75;;;4.00;3.60;;;;;;5052914;28;20032;-65
2023/04/27 05:53:33;;;;;;;3.80;1.88;;;4.10;1.00;;;;;;5053014;28;20032;-64
2023/04/27 05:55:59;;;;;;;3.03;2.03;;;4.30;1.00;;;;;;5052878;28;20504;-63
2023/04/27 05:58:25;;;;;;;3.03;1.92;;;4.50;1.00;;;;;;5052975;28;20055;-63
2023/04/27 06:00:52;;;;;;;2.45;1.60;;;4.60;1.00;;;;;;5052768;28;20123;-64
2023/04/27 06:03:18;;;;;;;3.05;1.83;;;4.80;1.00;;;;;;5053027;28;20159;-64
2023/04/27 06:05:44;;;;;;;2.25;1.40;;;4.90;99.90;;;;;;5052573;28;20118;-63
2023/04/27 06:08:11;;;;;;;3.35;1.88;;;5.10;64.60;;;;;;5035062;28;20052;-63
2023/04/27 06:10:36;;;;;;;3.60;1.58;;;5.20;1.00;;;;;;5052785;28;20119;-64
2023/04/27 06:13:02;;;;;;;2.80;1.52;;;5.70;1.00;;;;;;5052267;28;20041;-67
2023/04/27 06:15:28;;;;;;;2.97;1.45;;;5.50;1.00;;;;;;5052614;28;20048;-64
2023/04/27 06:17:54;;;;;;;2.22;1.27;;;5.60;1.00;;;;;;5052654;28;20049;-65
2023/04/27 06:20:19;;;;;;;3.60;1.80;;;5.70;98.10;;;;;;5052563;28;20037;-65
2023/04/27 06:22:45;;;;;;;3.38;1.60;;;5.90;99.90;;;;;;5052454;28;20132;-63
2023/04/27 06:25:11;;;;;;;1.58;1.17;;;6.00;95.80;;;;;;5034693;28;20075;-64
2023/04/27 06:27:37;;;;;;;2.10;1.48;;;6.10;99.90;;;;;;5052641;28;20115;-63
2023/04/27 06:30:03;;;;;;;2.75;1.20;;;6.30;99.90;;;;;;5052372;28;20040;-63
2023/04/27 06:32:29;;;;;;;3.33;1.20;;;6.40;99.90;;;;;;5052404;28;20068;-62
2023/04/27 06:34:55;;;;;;;1.85;1.05;;;6.60;99.90;;;;;;5052085;28;20045;-63
2023/04/27 06:37:21;;;;;;;2.67;1.20;;;6.70;99.90;;;;;;5034445;28;20484;-63
2023/04/27 06:39:46;;;;;;;2.17;1.27;;;6.90;99.90;;;;;;5052267;28;20033;-64
2023/04/27 06:42:12;;;;;;;2.05;1.20;;;7.00;72.00;;;;;;5052439;28;20120;-70
2023/04/27 06:44:38;;;;;;;3.72;1.25;;;7.10;19.00;;;;;;5052480;28;20041;-64
2023/04/27 06:47:04;;;;;;;1.70;0.95;;;7.20;1.00;;;;;;5052304;28;20619;-64
2023/04/27 06:49:30;;;;;;;1.90;0.93;;;7.30;1.00;;;;;;5052581;28;20037;-68
2023/04/27 06:51:56;;;;;;;3.03;1.17;;;7.40;99.90;;;;;;5021652;28;20045;-64
2023/04/27 06:54:22;;;;;;;1.98;0.90;;;7.50;99.90;;;;;;5056090;28;20041;-64
2023/04/27 06:56:47;;;;;;;1.33;1.10;;;7.60;99.90;;;;;;5056062;28;20500;-63
2023/04/27 06:59:13;;;;;;;1.50;0.95;;;7.70;99.90;;;;;;5055988;28;20114;-66
2023/04/27 07:01:38;;;;;;;2.00;0.98;;;7.70;99.90;;;;;;5055824;28;20045;-64
2023/04/27 07:04:05;;;;;;;1.75;1.08;;;7.80;99.90;;;;;;5055590;28;20073;-64
2023/04/27 07:06:31;;;;;;;1.63;1.15;;;7.90;99.90;;;;;;5055517;28;20041;-64
2023/04/27 07:08:57;;;;;;;1.88;1.17;;;8.00;99.90;;;;;;5055546;28;20535;-65
2023/04/27 07:11:23;;;;;;;2.20;1.27;;;8.10;99.90;;;;;;5037682;28;20051;-65
2023/04/27 07:13:49;;;;;;;1.35;1.02;;;8.30;99.90;;;;;;5055473;28;20459;-65
2023/04/27 07:16:15;;;;;;;2.33;0.90;;;8.30;99.90;;;;;;5055707;28;20079;-65
2023/04/27 07:18:41;;;;;;;1.00;0.90;;;8.30;99.90;;;;;;5037724;28;20044;-65
2023/04/27 07:21:06;;;;;;;1.83;0.85;;;8.30;99.90;;;;;;5055258;28;20041;-64
2023/04/27 07:23:32;;;;;;;1.23;0.85;;;8.30;99.90;;;;;;5055495;28;20090;-64
2023/04/27 07:25:58;;;;;;;1.17;1.00;;;8.40;99.90;;;;;;5054698;28;20516;-65
2023/04/27 07:28:24;;;;;;;1.48;0.77;;;8.50;99.90;;;;;;5055471;28;20040;-65
2023/04/27 07:30:50;;;;;;;1.58;0.73;;;8.60;99.90;;;;;;5037511;28;20078;-66
2023/04/27 07:33:15;;;;;;;3.88;1.10;;;8.70;99.90;;;;;;5055070;28;20037;-64
2023/04/27 07:35:41;;;;;;;2.22;1.08;;;8.80;99.90;;;;;;5055026;28;20441;-65
2023/04/27 07:38:07;;;;;;;3.28;1.15;;;8.80;99.90;;;;;;5055265;28;20029;-65
2023/04/27 07:40:33;;;;;;;1.67;1.08;;;8.90;99.90;;;;;;5055251;28;20073;-64
2023/04/27 07:42:59;;;;;;;2.05;0.98;;;9.00;99.90;;;;;;5037194;28;20060;-65
2023/04/27 07:45:31;;;;;;;2.47;1.08;;;9.10;99.90;;;;;;5055085;28;20083;-65
2023/04/27 07:47:59;;;;;;;1.17;1.08;;;9.20;99.90;;;;;;5054967;28;20087;-65
2023/04/27 07:50:25;;;;;;;1.85;0.90;;;9.30;99.90;;;;;;5055049;28;20119;-65
2023/04/27 07:52:53;;;;;;;3.03;0.90;;;9.30;99.90;;;;;;5037110;28;20061;-65
2023/04/27 07:55:20;;;;;;;1.98;0.98;;;10.20;99.90;;;;;;5054869;28;20045;-65
2023/04/27 07:57:46;;;;;;;3.05;1.20;;;9.40;99.90;;;;;;5054634;28;20099;-64
2023/04/27 08:00:12;;;;;;;1.33;0.85;;;9.50;99.90;;;;;;5054802;28;20041;-66
2023/04/27 08:02:38;;;;;;;2.10;1.00;;;9.60;99.90;;;;;;5053601;28;20132;-65
2023/04/27 08:05:03;;;;;;;0.90;0.60;;;10.60;99.90;;;;;;5038670;28;20135;-65
2023/04/27 08:07:30;;;;;;;1.35;0.98;;;9.70;99.90;;;;;;5054729;28;20405;-65
2023/04/27 08:09:56;;;;;;;0.82;0.70;;;9.70;99.90;;;;;;5054479;28;20049;-66
2023/04/27 08:12:22;;;;;;;2.53;0.98;;;9.80;99.90;;;;;;5053405;28;20140;-66
2023/04/27 08:14:47;;;;;;;1.80;0.93;;;9.80;99.90;;;;;;5053011;28;20052;-65
2023/04/27 08:17:13;;;;;;;1.77;1.10;;;9.90;99.90;;;;;;5054612;28;20428;-66
2023/04/27 08:19:40;;;;;;;1.70;1.00;;;9.90;99.90;;;;;;5053166;28;20403;-67
2023/04/27 08:22:05;;;;;;;2.35;1.25;;;9.90;99.90;;;;;;5054558;28;20044;-66
2023/04/27 08:24:31;;;;;;;1.83;1.02;;;10.80;99.90;;;;;;5054393;28;20496;-65
2023/04/27 08:26:57;;;;;;;2.38;1.42;;;10.00;99.90;;;;;;5052759;28;20568;-65
2023/04/27 08:29:23;;;;;;;3.28;1.70;;;10.00;99.90;;;;;;5054272;28;20191;-65
2023/04/27 08:31:49;;;;;;;2.28;1.25;;;10.00;99.90;;;;;;5054156;28;20094;-65
2023/04/27 08:34:15;;;;;;;2.45;1.48;;;10.10;99.90;;;;;;5054098;28;20037;-65
2023/04/27 08:36:41;;;;;;;1.88;1.00;;;10.10;99.90;;;;;;5054017;28;20060;-65
2023/04/27 08:39:06;;;;;;;2.20;1.30;;;10.20;99.90;;;;;;5053650;28;20043;-64
2023/04/27 08:41:33;;;;;;;1.83;1.05;;;10.30;99.90;;;;;;5036167;28;20045;-65
2023/04/27 08:43:58;;;;;;;1.42;1.00;;;10.40;99.90;;;;;;5053934;28;20040;-65
2023/04/27 08:46:27;;;;;;;2.25;1.20;;;10.80;99.90;;;;;;5053914;28;20103;-65
2023/04/27 08:48:53;;;;;;;3.38;1.15;;;10.50;99.90;;;;;;5053963;28;20116;-66
2023/04/27 08:51:20;;;;;;;5.60;1.40;;;10.50;99.90;;;;;;5053789;28;20087;-67
2023/04/27 08:53:51;;;;;;;1.25;0.85;;;10.60;99.90;;;;;;5036080;28;20485;-67
2023/04/27 08:56:18;;;;;;;2.03;0.90;;;10.60;99.90;;;;;;5035772;28;20040;-66
2023/04/27 08:58:44;;;;;;;1.70;1.25;;;10.60;99.90;;;;;;5052090;28;20178;-66
2023/04/27 09:01:10;;;;;;;2.33;1.20;;;10.70;99.90;;;;;;5053392;28;20548;-66
2023/04/27 09:03:36;;;;;;;1.52;1.20;;;10.80;99.90;;;;;;5052146;28;20503;-67
2023/04/27 09:06:03;;;;;;;2.65;1.20;;;10.80;99.90;;;;;;5051856;28;20142;-66
2023/04/27 09:08:47;;;;;;;4.05;2.20;;;10.90;99.90;;;;;;5035407;28;20041;-67
2023/04/27 09:11:14;;;;;;;2.67;1.38;;;11.10;99.90;;;;;;5053554;28;20433;-66
2023/04/27 09:13:44;;;;;;;1.75;1.42;;;11.10;99.90;;;;;;5052974;28;20110;-66
2023/04/27 09:16:12;;;;;;;2.72;1.10;;;11.00;99.90;;;;;;5053439;28;20163;-66
2023/04/27 09:18:41;;;;;;;2.17;1.35;;;10.90;99.90;;;;;;5053349;28;20124;-64
2023/04/27 09:21:06;;;;;;;2.83;1.40;;;10.70;99.90;;;;;;5052879;28;20036;-65
2023/04/27 09:23:34;;;;;;;2.63;1.42;;;10.80;99.90;;;;;;5051937;28;20033;-65
2023/04/27 09:26:08;;;;;;;2.70;1.63;;;10.90;99.90;;;;;;5051982;28;20041;-65
2023/04/27 09:28:38;;;;;;;1.77;1.20;;;11.00;99.90;;;;;;5051730;28;20048;-67
2023/04/27 09:31:04;;;;;;;3.38;1.52;;;11.60;99.90;;;;;;5051576;28;20041;-65
2023/04/27 09:33:37;;;;;;;2.25;1.40;;;11.20;99.90;;;;;;5051637;28;20574;-65
2023/04/27 09:36:05;;;;;;;3.65;1.77;;;11.30;99.90;;;;;;5053302;28;20036;-66
2023/04/27 09:38:31;;;;;;;2.60;1.70;;;11.40;99.90;;;;;;5053067;28;20045;-65
2023/04/27 09:40:58;;;;;;;5.95;2.30;;;11.50;99.90;;;;;;5052998;28;20083;-66
2023/04/27 09:43:24;;;;;;;3.45;2.00;;;11.60;99.90;;;;;;5052984;28;20044;-66
2023/04/27 09:45:50;;;;;;;4.03;1.63;;;11.60;99.90;;;;;;5052703;28;20519;-66
2023/04/27 09:48:17;;;;;;;2.35;1.70;;;11.50;99.90;;;;;;5052584;28;20037;-68
2023/04/27 09:50:44;;;;;;;3.78;1.27;;;11.70;99.90;;;;;;5052937;28;20040;-67
2023/04/27 09:53:22;;;;;;;2.95;2.13;;;11.70;99.90;;;;;;5052866;28;20116;-65
2023/04/27 09:56:12;;;;;;;3.40;1.80;;;11.80;99.90;;;;;;5050441;28;20476;-65
2023/04/27 09:59:19;;;;;;;7.00;1.70;;;11.80;99.90;;;;;;5052874;28;20436;-65
2023/04/27 10:01:45;;;;;;;2.78;1.88;;;11.80;99.90;;;;;;5052778;28;20055;-65
2023/04/27 10:04:26;;;;;;;3.28;1.63;;;11.60;99.90;;;;;;5052770;28;20116;-66
2023/04/27 10:07:02;;;;;;;2.70;1.40;;;11.50;99.90;;;;;;5068191;28;20567;-65
2023/04/27 10:09:45;;;;;;;2.45;1.13;;;12.10;99.90;;;;;;5051532;28;20102;-63
2023/04/27 10:12:22;;;;;;;2.97;1.75;;;11.60;99.90;;;;;;5052782;28;20395;-64
2023/04/27 10:14:53;;;;;;;2.85;1.70;;;11.90;99.90;;;;;;5052486;28;20048;-67
2023/04/27 10:17:27;;;;;;;3.67;1.90;;;12.00;99.90;;;;;;5052622;28;20115;-69
2023/04/27 10:19:58;;;;;;;2.50;1.67;;;12.10;99.90;;;;;;5068192;28;20071;-68
2023/04/27 10:22:40;;;;;;;3.80;2.05;;;12.30;99.90;;;;;;5052626;28;20045;-65
2023/04/27 10:25:35;;;;;;;3.78;2.00;;;12.50;99.90;;;;;;5053814;28;20119;-65
2023/04/27 10:28:02;;;;;;;3.63;2.05;;;12.70;99.90;;;;;;5056188;28;20120;-63
2023/04/27 10:30:35;;;;;;;4.35;1.92;;;13.20;99.90;;;;;;5055200;28;20131;-65
2023/04/27 10:33:07;;;;;;;3.03;1.85;;;12.70;99.90;;;;;;5056724;28;20040;-65
2023/04/27 10:35:42;;;;;;;3.45;1.95;;;12.80;99.90;;;;;;5056441;28;20047;-65
2023/04/27 10:38:09;;;;;;;4.05;2.10;;;12.70;99.90;;;;;;5056382;28;20044;-64
2023/04/27 10:40:35;;;;;;;2.08;1.38;;;12.70;99.90;;;;;;5055912;28;20080;-68
2023/04/27 10:43:12;;;;;;;3.55;2.08;;;12.60;99.90;;;;;;5056187;28;20106;-67
2023/04/27 10:45:39;;;;;;;5.03;2.05;;;13.50;99.90;;;;;;5054954;28;20045;-67
2023/04/27 10:48:05;;;;;;;3.42;2.25;;;12.40;99.90;;;;;;5056068;28;20095;-68
2023/04/27 10:50:31;;;;;;;2.65;1.60;;;12.40;99.90;;;;;;5055844;28;20033;-68
2023/04/27 10:53:05;;;;;;;2.05;1.42;;;13.50;99.90;;;;;;5054464;28;20041;-66
2023/04/27 10:55:31;;;;;;;3.72;1.77;;;12.30;99.90;;;;;;5055888;28;20036;-66
2023/04/27 10:57:58;;;;;;;2.97;2.22;;;12.10;99.90;;;;;;5054429;28;20048;-68
2023/04/27 11:00:31;;;;;;;5.75;1.67;;;11.90;99.90;;;;;;5055901;28;20378;-66
2023/04/27 11:03:29;;;;;;;3.67;2.17;;;11.90;99.90;;;;;;5055986;28;20041;-66
2023/04/27 11:06:04;;;;;;;5.68;1.60;;;12.00;99.90;;;;;;5054262;28;20400;-67
2023/04/27 11:08:31;;;;;;;4.50;1.65;;;12.10;99.90;;;;;;5054140;28;20051;-66
2023/04/27 11:10:57;;;;;;;3.55;1.83;;;13.10;99.90;;;;;;5055538;28;20049;-67
2023/04/27 11:13:24;;;;;;;3.33;1.88;;;12.20;99.90;;;;;;5055639;28;20071;-67
2023/04/27 11:15:59;;;;;;;2.20;1.35;;;12.40;99.90;;;;;;5054379;28;20044;-67
2023/04/27 11:18:28;;;;;;;2.47;1.27;;;12.40;99.90;;;;;;5054139;28;20124;-66
2023/04/27 11:21:14;;;;;;;3.58;1.48;;;12.60;99.90;;;;;;5055565;28;20033;-67
2023/04/27 11:23:41;;;;;;;3.05;1.70;;;12.60;99.90;;;;;;5054068;28;20052;-67
2023/04/27 11:26:20;;;;;;;4.50;1.80;;;12.50;99.90;;;;;;5055269;28;20044;-67
2023/04/27 11:29:11;;;;;;;3.55;1.20;;;12.50;99.90;;;;;;5055491;28;20419;-65
2023/04/27 11:31:46;;;;;;;4.88;1.50;;;12.30;99.90;;;;;;5055142;28;20049;-68
2023/04/27 11:34:21;;;;;;;3.45;1.80;;;12.60;99.90;;;;;;5055420;28;20084;-67
2023/04/27 11:37:02;;;;;;;2.22;1.42;;;12.30;99.90;;;;;;5055159;28;20488;-67
2023/04/27 11:39:32;;;;;;;2.22;1.33;;;12.80;99.90;;;;;;5055242;28;20041;-68
2023/04/27 11:42:23;;;;;;;3.80;1.52;;;12.30;99.90;;;;;;5055261;28;20467;-67
2023/04/27 11:44:53;;;;;;;3.47;2.20;;;12.30;99.90;;;;;;5053738;28;20044;-67
2023/04/27 11:47:18;;;;;;;4.50;1.33;;;12.40;99.90;;;;;;5053651;28;20044;-67
2023/04/27 11:49:58;;;;;;;3.65;1.40;;;13.00;99.90;;;;;;5054880;28;20119;-68
2023/04/27 11:52:28;;;;;;;1.77;1.13;;;12.20;99.90;;;;;;5055167;28;20124;-67
2023/04/27 11:54:55;;;;;;;2.15;1.48;;;12.20;99.90;;;;;;5055043;28;20048;-67
2023/04/27 11:57:29;;;;;;;3.60;1.80;;;12.20;99.90;;;;;;5053503;28;20107;-68
2023/04/27 11:59:56;;;;;;;4.07;1.45;;;12.10;99.90;;;;;;5053615;28;20485;-67
2023/04/27 12:02:22;;;;;;;3.08;1.73;;;12.10;99.90;;;;;;5054829;28;20095;-67
2023/04/27 12:04:49;;;;;;;2.72;1.67;;;12.10;99.90;;;;;;5054759;28;20080;-67
2023/04/27 12:07:15;;;;;;;2.08;1.40;;;12.10;99.90;;;;;;5054903;28;20057;-68
2023/04/27 12:09:41;;;;;;;3.10;1.58;;;12.20;99.90;;;;;;5036813;28;20045;-68
2023/04/27 12:12:07;;;;;;;8.63;1.48;;;12.30;99.90;;;;;;5054527;28;20469;-67
2023/04/27 12:14:33;;;;;;;2.40;1.45;;;12.30;99.90;;;;;;5036536;28;20041;-68
2023/04/27 12:16:58;;;;;;;2.03;1.08;;;12.50;99.90;;;;;;5036499;28;20079;-67
2023/04/27 12:19:24;;;;;;;2.65;1.70;;;12.60;99.90;;;;;;5054525;28;20036;-68
2023/04/27 12:21:51;;;;;;;2.78;1.75;;;12.70;99.90;;;;;;5054284;28;20389;-68
2023/04/27 12:24:16;;;;;;;5.75;1.92;;;13.60;99.90;;;;;;5036689;28;20056;-67
2023/04/27 12:26:42;;;;;;;5.25;1.30;;;12.80;99.90;;;;;;5036366;28;20401;-68
2023/04/27 12:29:08;;;;;;;3.28;1.50;;;12.80;99.90;;;;;;5054429;28;20098;-67
2023/04/27 12:31:34;;;;;;;2.72;1.40;;;13.00;99.90;;;;;;5054126;28;20072;-67
2023/04/27 12:34:00;;;;;;;5.13;2.20;;;12.80;99.90;;;;;;5054270;28;20037;-67
2023/04/27 12:36:26;;;;;;;4.07;1.60;;;12.90;99.90;;;;;;5054284;28;20033;-67
2023/04/27 12:38:56;;;;;;;4.80;1.60;;;13.00;99.90;;;;;;5053902;28;20067;-67
2023/04/27 12:41:22;;;;;;;7.15;1.95;;;13.00;99.90;;;;;;5053882;28;20041;-67
2023/04/27 12:43:47;;;;;;;1.83;1.30;;;13.10;99.90;;;;;;5035756;28;20099;-68
2023/04/27 12:46:13;;;;;;;1.98;1.27;;;13.10;99.90;;;;;;5053690;28;20049;-68
2023/04/27 12:48:39;;;;;;;3.88;1.90;;;13.30;99.90;;;;;;5053404;28;20043;-67
2023/04/27 12:51:06;;;;;;;1.83;1.30;;;13.40;99.90;;;;;;5053966;28;20040;-68
2023/04/27 12:53:32;;;;;;;2.88;2.00;;;13.50;99.90;;;;;;5035625;28;20081;-67
2023/04/27 12:56:00;;;;;;;6.40;1.52;;;13.60;99.90;;;;;;5035702;28;20048;-69